sensor_id;sensor_type;location;lat;lon;timestamp;temperature;humidity
30648;DHT22;17683;53.360;9.736;2023-03-23T00:02:06;11.00;99.90
30648;DHT22;17683;53.360;9.736;2023-03-23T00:04:32;11.00;99.90
30648;DHT22;17683;53.360;9.736;2023-03-23T00:06:58;11.00;99.90
30648;DHT22;17683;53.360;9.736;2023-03-23T00:09:28;10.90;99.90
30648;DHT22;17683;53.360;9.736;2023-03-23T00:11:55;11.00;99.90
30648;DHT22;17683;53.360;9.736;2023-03-23T00:14:23;11.00;99.90
30648;DHT22;17683;53.360;9.736;2023-03-23T00:16:50;11.00;99.90
30648;DHT22;17683;53.360;9.736;2023-03-23T00:19:16;10.90;99.90
30648;DHT22;17683;53.360;9.736;2023-03-23T00:21:44;10.90;99.90
30648;DHT22;17683;53.360;9.736;2023-03-23T00:24:17;10.80;99.90
30648;DHT22;17683;53.360;9.736;2023-03-23T00:26:48;10.90;99.90
30648;DHT22;17683;53.360;9.736;2023-03-23T00:29:19;10.90;99.90
30648;DHT22;17683;53.360;9.736;2023-03-23T00:31:47;10.90;99.90
30648;DHT22;17683;53.360;9.736;2023-03-23T00:34:15;10.90;99.90
30648;DHT22;17683;53.360;9.736;2023-03-23T00:36:45;10.90;99.90
30648;DHT22;17683;53.360;9.736;2023-03-23T00:39:12;10.90;99.90
30648;DHT22;17683;53.360;9.736;2023-03-23T00:41:37;10.90;99.90
30648;DHT22;17683;53.360;9.736;2023-03-23T00:44:04;10.90;99.90
30648;DHT22;17683;53.360;9.736;2023-03-23T00:46:30;10.80;99.90
30648;DHT22;17683;53.360;9.736;2023-03-23T00:48:56;10.80;99.90
30648;DHT22;17683;53.360;9.736;2023-03-23T00:51:23;10.80;99.90
30648;DHT22;17683;53.360;9.736;2023-03-23T00:53:48;10.80;99.90
30648;DHT22;17683;53.360;9.736;2023-03-23T00:56:14;10.80;99.90
30648;DHT22;17683;53.360;9.736;2023-03-23T00:58:40;10.80;99.90
30648;DHT22;17683;53.360;9.736;2023-03-23T01:01:07;10.80;99.90
30648;DHT22;17683;53.360;9.736;2023-03-23T01:03:33;10.80;99.90
30648;DHT22;17683;53.360;9.736;2023-03-23T01:06:09;10.80;99.90
30648;DHT22;17683;53.360;9.736;2023-03-23T01:08:38;10.80;99.90
30648;DHT22;17683;53.360;9.736;2023-03-23T01:11:13;10.80;99.90
30648;DHT22;17683;53.360;9.736;2023-03-23T01:13:39;10.80;99.90
30648;DHT22;17683;53.360;9.736;2023-03-23T01:16:06;10.80;99.90
30648;DHT22;17683;53.360;9.736;2023-03-23T01:18:32;10.80;99.90
30648;DHT22;17683;53.360;9.736;2023-03-23T01:20:57;10.80;99.90
30648;DHT22;17683;53.360;9.736;2023-03-23T01:23:23;10.80;99.90
30648;DHT22;17683;53.360;9.736;2023-03-23T01:25:49;10.70;99.90
30648;DHT22;17683;53.360;9.736;2023-03-23T01:28:15;10.70;99.90
30648;DHT22;17683;53.360;9.736;2023-03-23T01:30:41;10.70;99.90
30648;DHT22;17683;53.360;9.736;2023-03-23T01:33:06;10.70;99.90
30648;DHT22;17683;53.360;9.736;2023-03-23T01:35:32;10.80;99.90
30648;DHT22;17683;53.360;9.736;2023-03-23T01:37:58;10.80;99.90
30648;DHT22;17683;53.360;9.736;2023-03-23T01:40:26;10.80;99.90
30648;DHT22;17683;53.360;9.736;2023-03-23T01:42:52;10.80;99.90
30648;DHT22;17683;53.360;9.736;2023-03-23T01:45:25;10.80;99.90
30648;DHT22;17683;53.360;9.736;2023-03-23T01:48:03;10.80;99.90
30648;DHT22;17683;53.360;9.736;2023-03-23T01:53:13;10.80;99.90
30648;DHT22;17683;53.360;9.736;2023-03-23T01:55:41;10.80;99.90
30648;DHT22;17683;53.360;9.736;2023-03-23T01:58:09;10.80;99.90
30648;DHT22;17683;53.360;9.736;2023-03-23T02:00:37;10.80;99.90
30648;DHT22;17683;53.360;9.736;2023-03-23T02:03:08;10.80;99.90
30648;DHT22;17683;53.360;9.736;2023-03-23T02:05:39;10.80;99.90
30648;DHT22;17683;53.360;9.736;2023-03-23T02:08:06;10.80;99.90
30648;DHT22;17683;53.360;9.736;2023-03-23T02:10:35;10.80;99.90
30648;DHT22;17683;53.360;9.736;2023-03-23T02:13:02;10.80;99.90
30648;DHT22;17683;53.360;9.736;2023-03-23T02:16:11;10.80;99.90
30648;DHT22;17683;53.360;9.736;2023-03-23T02:26:58;10.80;99.90
30648;DHT22;17683;53.360;9.736;2023-03-23T02:34:34;10.80;99.90
30648;DHT22;17683;53.360;9.736;2023-03-23T02:37:09;10.80;99.90
30648;DHT22;17683;53.360;9.736;2023-03-23T02:39:52;10.80;99.90
30648;DHT22;17683;53.360;9.736;2023-03-23T02:42:27;10.80;99.90
30648;DHT22;17683;53.360;9.736;2023-03-23T02:44:55;10.80;99.90
30648;DHT22;17683;53.360;9.736;2023-03-23T02:47:24;10.80;99.90
30648;DHT22;17683;53.360;9.736;2023-03-23T02:49:54;10.90;99.90
30648;DHT22;17683;53.360;9.736;2023-03-23T02:52:27;10.90;99.90
30648;DHT22;17683;53.360;9.736;2023-03-23T02:54:55;10.90;99.90
30648;DHT22;17683;53.360;9.736;2023-03-23T02:57:22;10.90;99.90
30648;DHT22;17683;53.360;9.736;2023-03-23T02:59:49;10.90;99.90
30648;DHT22;17683;53.360;9.736;2023-03-23T03:04:54;10.90;99.90
30648;DHT22;17683;53.360;9.736;2023-03-23T03:07:38;10.90;99.90
30648;DHT22;17683;53.360;9.736;2023-03-23T03:10:34;10.90;99.90
30648;DHT22;17683;53.360;9.736;2023-03-23T03:13:18;10.90;99.90
30648;DHT22;17683;53.360;9.736;2023-03-23T03:15:53;10.90;99.90
30648;DHT22;17683;53.360;9.736;2023-03-23T03:18:23;10.90;99.90
30648;DHT22;17683;53.360;9.736;2023-03-23T03:20:54;10.90;99.90
30648;DHT22;17683;53.360;9.736;2023-03-23T03:23:25;11.00;99.90
30648;DHT22;17683;53.360;9.736;2023-03-23T03:25:52;11.00;99.90
30648;DHT22;17683;53.360;9.736;2023-03-23T03:28:20;10.90;99.90
30648;DHT22;17683;53.360;9.736;2023-03-23T03:31:06;11.00;99.90
30648;DHT22;17683;53.360;9.736;2023-03-23T03:33:32;10.90;99.90
30648;DHT22;17683;53.360;9.736;2023-03-23T03:36:03;10.90;99.90
30648;DHT22;17683;53.360;9.736;2023-03-23T03:38:42;10.90;99.90
30648;DHT22;17683;53.360;9.736;2023-03-23T03:41:08;10.90;99.90
30648;DHT22;17683;53.360;9.736;2023-03-23T03:43:33;10.80;99.90
30648;DHT22;17683;53.360;9.736;2023-03-23T03:46:00;10.80;99.90
30648;DHT22;17683;53.360;9.736;2023-03-23T03:48:26;10.80;99.90
30648;DHT22;17683;53.360;9.736;2023-03-23T03:50:52;10.80;99.90
30648;DHT22;17683;53.360;9.736;2023-03-23T03:53:18;10.80;99.90
30648;DHT22;17683;53.360;9.736;2023-03-23T03:55:43;10.80;99.90
30648;DHT22;17683;53.360;9.736;2023-03-23T03:58:10;10.80;99.90
30648;DHT22;17683;53.360;9.736;2023-03-23T04:00:36;10.80;99.90
30648;DHT22;17683;53.360;9.736;2023-03-23T04:03:02;10.80;99.90
30648;DHT22;17683;53.360;9.736;2023-03-23T04:05:27;10.80;99.90
30648;DHT22;17683;53.360;9.736;2023-03-23T04:07:56;10.80;99.90
30648;DHT22;17683;53.360;9.736;2023-03-23T04:10:28;10.80;99.90
30648;DHT22;17683;53.360;9.736;2023-03-23T04:12:54;10.80;99.90
30648;DHT22;17683;53.360;9.736;2023-03-23T04:15:21;10.80;99.90
30648;DHT22;17683;53.360;9.736;2023-03-23T04:17:47;10.80;99.90
30648;DHT22;17683;53.360;9.736;2023-03-23T04:20:12;10.90;99.90
30648;DHT22;17683;53.360;9.736;2023-03-23T04:22:46;10.80;99.90
30648;DHT22;17683;53.360;9.736;2023-03-23T04:25:16;10.80;99.90
30648;DHT22;17683;53.360;9.736;2023-03-23T04:27:42;10.80;99.90
30648;DHT22;17683;53.360;9.736;2023-03-23T04:30:10;10.80;99.90
30648;DHT22;17683;53.360;9.736;2023-03-23T04:32:37;10.90;99.90
30648;DHT22;17683;53.360;9.736;2023-03-23T04:35:06;10.80;99.90
30648;DHT22;17683;53.360;9.736;2023-03-23T04:37:32;10.80;99.90
30648;DHT22;17683;53.360;9.736;2023-03-23T04:39:58;10.90;99.90
30648;DHT22;17683;53.360;9.736;2023-03-23T04:42:31;10.80;99.90
30648;DHT22;17683;53.360;9.736;2023-03-23T04:44:57;10.80;99.90
30648;DHT22;17683;53.360;9.736;2023-03-23T04:47:24;10.80;99.90
30648;DHT22;17683;53.360;9.736;2023-03-23T04:49:55;10.80;99.90
30648;DHT22;17683;53.360;9.736;2023-03-23T04:52:22;10.80;99.90
30648;DHT22;17683;53.360;9.736;2023-03-23T04:54:47;10.80;99.90
30648;DHT22;17683;53.360;9.736;2023-03-23T04:57:13;10.80;99.90
30648;DHT22;17683;53.360;9.736;2023-03-23T04:59:41;10.80;99.90
30648;DHT22;17683;53.360;9.736;2023-03-23T05:02:07;10.80;99.90
30648;DHT22;17683;53.360;9.736;2023-03-23T05:04:32;10.70;99.90
30648;DHT22;17683;53.360;9.736;2023-03-23T05:06:59;10.80;99.90
30648;DHT22;17683;53.360;9.736;2023-03-23T05:09:25;10.80;99.90
30648;DHT22;17683;53.360;9.736;2023-03-23T05:11:50;10.80;99.90
30648;DHT22;17683;53.360;9.736;2023-03-23T05:14:16;10.80;99.90
30648;DHT22;17683;53.360;9.736;2023-03-23T05:16:42;10.80;99.90
30648;DHT22;17683;53.360;9.736;2023-03-23T05:19:07;10.80;99.90
30648;DHT22;17683;53.360;9.736;2023-03-23T05:21:33;10.80;99.90
30648;DHT22;17683;53.360;9.736;2023-03-23T05:23:59;10.80;99.90
30648;DHT22;17683;53.360;9.736;2023-03-23T05:26:26;10.70;99.90
30648;DHT22;17683;53.360;9.736;2023-03-23T05:28:57;10.70;99.90
30648;DHT22;17683;53.360;9.736;2023-03-23T05:31:24;10.70;99.90
30648;DHT22;17683;53.360;9.736;2023-03-23T05:33:51;10.70;99.90
30648;DHT22;17683;53.360;9.736;2023-03-23T05:36:16;10.70;99.90
30648;DHT22;17683;53.360;9.736;2023-03-23T05:38:42;10.70;99.90
30648;DHT22;17683;53.360;9.736;2023-03-23T05:41:11;10.70;99.90
30648;DHT22;17683;53.360;9.736;2023-03-23T05:43:37;10.70;99.90
30648;DHT22;17683;53.360;9.736;2023-03-23T05:46:03;10.70;99.90
30648;DHT22;17683;53.360;9.736;2023-03-23T05:48:29;10.70;99.90
30648;DHT22;17683;53.360;9.736;2023-03-23T05:50:55;10.70;99.90
30648;DHT22;17683;53.360;9.736;2023-03-23T05:53:21;10.70;99.90
30648;DHT22;17683;53.360;9.736;2023-03-23T05:55:47;10.70;99.90
30648;DHT22;17683;53.360;9.736;2023-03-23T05:58:12;10.80;99.90
30648;DHT22;17683;53.360;9.736;2023-03-23T06:00:38;10.70;99.90
30648;DHT22;17683;53.360;9.736;2023-03-23T06:03:04;10.70;99.90
30648;DHT22;17683;53.360;9.736;2023-03-23T06:05:31;10.70;99.90
30648;DHT22;17683;53.360;9.736;2023-03-23T06:07:58;10.70;99.90
30648;DHT22;17683;53.360;9.736;2023-03-23T06:10:25;10.80;99.90
30648;DHT22;17683;53.360;9.736;2023-03-23T06:12:52;10.70;99.90
30648;DHT22;17683;53.360;9.736;2023-03-23T06:15:18;10.70;99.90
30648;DHT22;17683;53.360;9.736;2023-03-23T06:17:44;10.70;99.90
30648;DHT22;17683;53.360;9.736;2023-03-23T06:20:10;10.80;99.90
30648;DHT22;17683;53.360;9.736;2023-03-23T06:22:37;10.80;99.90
30648;DHT22;17683;53.360;9.736;2023-03-23T06:25:04;10.80;99.90
30648;DHT22;17683;53.360;9.736;2023-03-23T06:27:30;10.80;99.90
30648;DHT22;17683;53.360;9.736;2023-03-23T06:29:56;10.80;99.90
30648;DHT22;17683;53.360;9.736;2023-03-23T06:32:23;10.80;99.90
30648;DHT22;17683;53.360;9.736;2023-03-23T06:34:49;10.80;99.90
30648;DHT22;17683;53.360;9.736;2023-03-23T06:37:15;10.90;99.90
30648;DHT22;17683;53.360;9.736;2023-03-23T06:39:41;10.90;99.90
30648;DHT22;17683;53.360;9.736;2023-03-23T06:42:11;10.90;99.90
30648;DHT22;17683;53.360;9.736;2023-03-23T06:44:37;10.90;99.90
30648;DHT22;17683;53.360;9.736;2023-03-23T06:47:04;10.90;99.90
30648;DHT22;17683;53.360;9.736;2023-03-23T06:49:30;10.90;99.90
30648;DHT22;17683;53.360;9.736;2023-03-23T06:51:57;11.00;99.90
30648;DHT22;17683;53.360;9.736;2023-03-23T06:54:23;11.00;99.90
30648;DHT22;17683;53.360;9.736;2023-03-23T06:56:48;11.10;99.90
30648;DHT22;17683;53.360;9.736;2023-03-23T06:59:14;11.10;99.90
30648;DHT22;17683;53.360;9.736;2023-03-23T07:01:40;11.10;99.90
30648;DHT22;17683;53.360;9.736;2023-03-23T07:04:06;11.20;99.90
30648;DHT22;17683;53.360;9.736;2023-03-23T07:06:32;11.30;99.90
30648;DHT22;17683;53.360;9.736;2023-03-23T07:08:58;11.30;99.90
30648;DHT22;17683;53.360;9.736;2023-03-23T07:11:24;11.40;99.90
30648;DHT22;17683;53.360;9.736;2023-03-23T07:13:50;11.50;99.90
30648;DHT22;17683;53.360;9.736;2023-03-23T07:16:16;11.50;99.90
30648;DHT22;17683;53.360;9.736;2023-03-23T07:18:43;11.60;99.90
30648;DHT22;17683;53.360;9.736;2023-03-23T07:21:09;11.60;99.90
30648;DHT22;17683;53.360;9.736;2023-03-23T07:23:35;11.60;99.90
30648;DHT22;17683;53.360;9.736;2023-03-23T07:26:01;11.70;99.90
30648;DHT22;17683;53.360;9.736;2023-03-23T07:28:28;11.70;99.90
30648;DHT22;17683;53.360;9.736;2023-03-23T07:30:54;11.80;99.90
30648;DHT22;17683;53.360;9.736;2023-03-23T07:33:20;11.80;99.90
30648;DHT22;17683;53.360;9.736;2023-03-23T07:35:47;11.80;99.90
30648;DHT22;17683;53.360;9.736;2023-03-23T07:38:13;11.80;99.90
30648;DHT22;17683;53.360;9.736;2023-03-23T07:40:39;11.80;99.90
30648;DHT22;17683;53.360;9.736;2023-03-23T07:43:06;11.80;99.90
30648;DHT22;17683;53.360;9.736;2023-03-23T07:45:32;11.80;99.90
30648;DHT22;17683;53.360;9.736;2023-03-23T07:47:59;11.80;99.90
30648;DHT22;17683;53.360;9.736;2023-03-23T07:50:25;11.80;99.90
30648;DHT22;17683;53.360;9.736;2023-03-23T07:52:54;11.80;99.90
30648;DHT22;17683;53.360;9.736;2023-03-23T07:55:20;11.80;99.90
30648;DHT22;17683;53.360;9.736;2023-03-23T07:57:49;11.80;99.90
30648;DHT22;17683;53.360;9.736;2023-03-23T08:00:16;11.80;99.90
30648;DHT22;17683;53.360;9.736;2023-03-23T08:02:47;11.90;99.90
30648;DHT22;17683;53.360;9.736;2023-03-23T08:05:14;12.00;99.90
30648;DHT22;17683;53.360;9.736;2023-03-23T08:07:41;12.00;99.90
30648;DHT22;17683;53.360;9.736;2023-03-23T08:10:08;12.00;99.90
30648;DHT22;17683;53.360;9.736;2023-03-23T08:12:41;12.10;99.90
30648;DHT22;17683;53.360;9.736;2023-03-23T08:15:09;12.00;99.90
30648;DHT22;17683;53.360;9.736;2023-03-23T08:17:39;12.00;99.90
30648;DHT22;17683;53.360;9.736;2023-03-23T08:20:06;12.00;99.90
30648;DHT22;17683;53.360;9.736;2023-03-23T08:22:36;11.90;99.90
30648;DHT22;17683;53.360;9.736;2023-03-23T08:25:03;11.90;99.90
30648;DHT22;17683;53.360;9.736;2023-03-23T08:27:29;11.90;99.90
30648;DHT22;17683;53.360;9.736;2023-03-23T08:29:55;11.70;99.90
30648;DHT22;17683;53.360;9.736;2023-03-23T08:32:20;11.60;99.90
30648;DHT22;17683;53.360;9.736;2023-03-23T08:34:46;11.60;99.90
30648;DHT22;17683;53.360;9.736;2023-03-23T08:37:13;11.50;99.90
30648;DHT22;17683;53.360;9.736;2023-03-23T08:39:38;11.50;99.90
30648;DHT22;17683;53.360;9.736;2023-03-23T08:42:04;11.50;99.90
30648;DHT22;17683;53.360;9.736;2023-03-23T08:44:30;11.40;99.90
30648;DHT22;17683;53.360;9.736;2023-03-23T08:46:56;11.40;99.90
30648;DHT22;17683;53.360;9.736;2023-03-23T08:49:23;11.40;99.90
30648;DHT22;17683;53.360;9.736;2023-03-23T08:51:49;11.40;99.90
30648;DHT22;17683;53.360;9.736;2023-03-23T08:54:14;11.40;99.90
30648;DHT22;17683;53.360;9.736;2023-03-23T08:56:42;11.40;99.90
30648;DHT22;17683;53.360;9.736;2023-03-23T08:59:08;11.40;99.90
30648;DHT22;17683;53.360;9.736;2023-03-23T09:01:34;11.40;99.90
30648;DHT22;17683;53.360;9.736;2023-03-23T09:04:00;11.40;99.90
30648;DHT22;17683;53.360;9.736;2023-03-23T09:06:26;11.30;99.90
30648;DHT22;17683;53.360;9.736;2023-03-23T09:08:53;11.40;99.90
30648;DHT22;17683;53.360;9.736;2023-03-23T09:11:21;11.40;99.90
30648;DHT22;17683;53.360;9.736;2023-03-23T09:13:47;11.50;99.90
30648;DHT22;17683;53.360;9.736;2023-03-23T09:16:13;11.50;99.90
30648;DHT22;17683;53.360;9.736;2023-03-23T09:18:39;11.50;99.90
30648;DHT22;17683;53.360;9.736;2023-03-23T09:21:05;11.50;99.90
30648;DHT22;17683;53.360;9.736;2023-03-23T09:23:32;11.50;99.90
30648;DHT22;17683;53.360;9.736;2023-03-23T09:26:00;11.60;99.90
30648;DHT22;17683;53.360;9.736;2023-03-23T09:28:26;11.60;99.90
30648;DHT22;17683;53.360;9.736;2023-03-23T09:30:54;11.60;99.90
30648;DHT22;17683;53.360;9.736;2023-03-23T09:33:21;11.60;99.90
30648;DHT22;17683;53.360;9.736;2023-03-23T09:35:47;11.70;99.90
30648;DHT22;17683;53.360;9.736;2023-03-23T09:38:13;11.80;99.90
30648;DHT22;17683;53.360;9.736;2023-03-23T09:40:46;11.80;99.90
30648;DHT22;17683;53.360;9.736;2023-03-23T09:43:20;11.90;99.90
30648;DHT22;17683;53.360;9.736;2023-03-23T09:48:54;12.10;99.90
30648;DHT22;17683;53.360;9.736;2023-03-23T09:51:40;12.10;99.90
30648;DHT22;17683;53.360;9.736;2023-03-23T09:56:39;12.10;99.90
30648;DHT22;17683;53.360;9.736;2023-03-23T10:01:59;12.20;99.90
30648;DHT22;17683;53.360;9.736;2023-03-23T10:04:50;12.20;99.90
30648;DHT22;17683;53.360;9.736;2023-03-23T10:07:22;12.20;99.90
30648;DHT22;17683;53.360;9.736;2023-03-23T10:09:53;12.30;99.90
30648;DHT22;17683;53.360;9.736;2023-03-23T10:17:37;12.40;99.90
30648;DHT22;17683;53.360;9.736;2023-03-23T10:23:08;12.40;99.90
30648;DHT22;17683;53.360;9.736;2023-03-23T10:25:37;12.40;99.90
30648;DHT22;17683;53.360;9.736;2023-03-23T10:28:12;12.50;99.90
30648;DHT22;17683;53.360;9.736;2023-03-23T10:30:48;12.40;99.90
30648;DHT22;17683;53.360;9.736;2023-03-23T10:33:31;12.50;99.90
30648;DHT22;17683;53.360;9.736;2023-03-23T10:36:10;12.60;99.90
30648;DHT22;17683;53.360;9.736;2023-03-23T10:38:43;12.50;99.90
30648;DHT22;17683;53.360;9.736;2023-03-23T10:41:15;12.50;99.90
30648;DHT22;17683;53.360;9.736;2023-03-23T10:43:42;12.60;99.90
30648;DHT22;17683;53.360;9.736;2023-03-23T10:48:38;12.90;99.90
30648;DHT22;17683;53.360;9.736;2023-03-23T10:51:09;13.00;99.90
30648;DHT22;17683;53.360;9.736;2023-03-23T10:53:38;13.00;99.90
30648;DHT22;17683;53.360;9.736;2023-03-23T10:58:51;13.10;99.90
30648;DHT22;17683;53.360;9.736;2023-03-23T11:01:20;13.10;99.90
30648;DHT22;17683;53.360;9.736;2023-03-23T11:03:53;13.10;99.90
30648;DHT22;17683;53.360;9.736;2023-03-23T11:06:22;13.20;99.90
30648;DHT22;17683;53.360;9.736;2023-03-23T11:08:57;13.10;99.90
30648;DHT22;17683;53.360;9.736;2023-03-23T11:11:32;13.10;99.90
30648;DHT22;17683;53.360;9.736;2023-03-23T11:14:00;13.10;99.90
30648;DHT22;17683;53.360;9.736;2023-03-23T11:16:30;13.10;99.90
30648;DHT22;17683;53.360;9.736;2023-03-23T11:18:58;13.20;99.90
30648;DHT22;17683;53.360;9.736;2023-03-23T11:21:25;13.20;99.90
30648;DHT22;17683;53.360;9.736;2023-03-23T11:23:55;13.20;99.90
30648;DHT22;17683;53.360;9.736;2023-03-23T11:26:24;13.20;99.90
30648;DHT22;17683;53.360;9.736;2023-03-23T11:31:41;13.20;99.90
30648;DHT22;17683;53.360;9.736;2023-03-23T11:34:20;13.20;99.90
30648;DHT22;17683;53.360;9.736;2023-03-23T11:36:53;13.20;99.90
30648;DHT22;17683;53.360;9.736;2023-03-23T11:39:26;13.30;99.90
30648;DHT22;17683;53.360;9.736;2023-03-23T11:41:54;13.20;99.90
30648;DHT22;17683;53.360;9.736;2023-03-23T11:44:22;13.20;99.90
30648;DHT22;17683;53.360;9.736;2023-03-23T11:46:55;13.20;99.90
30648;DHT22;17683;53.360;9.736;2023-03-23T11:49:29;13.10;99.90
30648;DHT22;17683;53.360;9.736;2023-03-23T11:52:04;13.00;99.90
30648;DHT22;17683;53.360;9.736;2023-03-23T11:54:34;13.00;99.90
30648;DHT22;17683;53.360;9.736;2023-03-23T11:57:07;13.00;99.90
30648;DHT22;17683;53.360;9.736;2023-03-23T11:59:35;13.10;99.90
30648;DHT22;17683;53.360;9.736;2023-03-23T12:16:17;13.10;99.90
30648;DHT22;17683;53.360;9.736;2023-03-23T12:22:05;13.00;99.90
30648;DHT22;17683;53.360;9.736;2023-03-23T12:27:55;13.10;99.90
30648;DHT22;17683;53.360;9.736;2023-03-23T12:44:43;13.70;99.90
30648;DHT22;17683;53.360;9.736;2023-03-23T12:47:35;13.60;99.90
30648;DHT22;17683;53.360;9.736;2023-03-23T12:50:35;13.70;99.90
30648;DHT22;17683;53.360;9.736;2023-03-23T12:53:23;13.70;99.90
30648;DHT22;17683;53.360;9.736;2023-03-23T12:56:13;13.80;99.90
30648;DHT22;17683;53.360;9.736;2023-03-23T12:58:52;13.90;99.90
30648;DHT22;17683;53.360;9.736;2023-03-23T13:03:56;13.90;99.90
30648;DHT22;17683;53.360;9.736;2023-03-23T13:06:40;13.90;99.90
30648;DHT22;17683;53.360;9.736;2023-03-23T13:12:09;13.80;99.90
30648;DHT22;17683;53.360;9.736;2023-03-23T13:14:43;13.80;99.90
30648;DHT22;17683;53.360;9.736;2023-03-23T13:17:16;13.80;99.90
30648;DHT22;17683;53.360;9.736;2023-03-23T13:31:27;14.00;99.90
30648;DHT22;17683;53.360;9.736;2023-03-23T13:34:18;13.90;99.90
30648;DHT22;17683;53.360;9.736;2023-03-23T13:36:58;13.90;99.90
30648;DHT22;17683;53.360;9.736;2023-03-23T13:39:27;13.90;99.90
30648;DHT22;17683;53.360;9.736;2023-03-23T13:47:26;13.90;99.90
30648;DHT22;17683;53.360;9.736;2023-03-23T13:49:57;13.90;99.90
30648;DHT22;17683;53.360;9.736;2023-03-23T13:52:25;14.00;99.90
30648;DHT22;17683;53.360;9.736;2023-03-23T13:55:08;14.10;99.90
30648;DHT22;17683;53.360;9.736;2023-03-23T13:57:50;14.10;99.90
30648;DHT22;17683;53.360;9.736;2023-03-23T14:00:49;14.20;99.90
30648;DHT22;17683;53.360;9.736;2023-03-23T14:03:26;14.20;99.90
30648;DHT22;17683;53.360;9.736;2023-03-23T14:10:59;13.90;99.90
30648;DHT22;17683;53.360;9.736;2023-03-23T14:16:24;13.50;99.90
30648;DHT22;17683;53.360;9.736;2023-03-23T14:18:57;13.30;99.90
30648;DHT22;17683;53.360;9.736;2023-03-23T14:21:35;13.10;99.90
30648;DHT22;17683;53.360;9.736;2023-03-23T14:24:17;13.00;99.90
30648;DHT22;17683;53.360;9.736;2023-03-23T14:26:45;13.00;99.90
30648;DHT22;17683;53.360;9.736;2023-03-23T14:29:13;12.80;99.90
30648;DHT22;17683;53.360;9.736;2023-03-23T14:31:40;12.70;99.90
30648;DHT22;17683;53.360;9.736;2023-03-23T14:34:13;12.60;99.90
30648;DHT22;17683;53.360;9.736;2023-03-23T14:36:41;12.50;99.90
30648;DHT22;17683;53.360;9.736;2023-03-23T14:41:46;12.30;99.90
30648;DHT22;17683;53.360;9.736;2023-03-23T14:44:18;12.20;99.90
30648;DHT22;17683;53.360;9.736;2023-03-23T14:46:46;12.20;99.90
30648;DHT22;17683;53.360;9.736;2023-03-23T14:49:16;12.20;99.90
30648;DHT22;17683;53.360;9.736;2023-03-23T14:51:54;12.20;99.90
30648;DHT22;17683;53.360;9.736;2023-03-23T14:54:26;12.30;99.90
30648;DHT22;17683;53.360;9.736;2023-03-23T14:56:53;12.30;99.90
30648;DHT22;17683;53.360;9.736;2023-03-23T14:59:19;12.40;99.90
30648;DHT22;17683;53.360;9.736;2023-03-23T15:01:47;12.50;99.90
30648;DHT22;17683;53.360;9.736;2023-03-23T15:04:16;12.60;99.90
30648;DHT22;17683;53.360;9.736;2023-03-23T15:06:45;12.60;99.90
30648;DHT22;17683;53.360;9.736;2023-03-23T15:09:18;12.60;99.90
30648;DHT22;17683;53.360;9.736;2023-03-23T15:12:02;12.50;99.90
30648;DHT22;17683;53.360;9.736;2023-03-23T15:14:32;12.50;99.90
30648;DHT22;17683;53.360;9.736;2023-03-23T15:16:59;12.40;99.90
30648;DHT22;17683;53.360;9.736;2023-03-23T15:19:37;12.30;99.90
30648;DHT22;17683;53.360;9.736;2023-03-23T15:22:06;12.20;99.90
30648;DHT22;17683;53.360;9.736;2023-03-23T15:24:36;12.00;99.90
30648;DHT22;17683;53.360;9.736;2023-03-23T15:27:30;12.00;99.90
30648;DHT22;17683;53.360;9.736;2023-03-23T15:30:27;12.10;99.90
30648;DHT22;17683;53.360;9.736;2023-03-23T15:32:46;12.20;99.90
30648;DHT22;17683;53.360;9.736;2023-03-23T15:35:15;12.20;99.90
30648;DHT22;17683;53.360;9.736;2023-03-23T15:37:47;12.20;99.90
30648;DHT22;17683;53.360;9.736;2023-03-23T15:40:19;12.20;99.90
30648;DHT22;17683;53.360;9.736;2023-03-23T15:42:46;12.20;99.90
30648;DHT22;17683;53.360;9.736;2023-03-23T15:47:44;12.10;99.90
30648;DHT22;17683;53.360;9.736;2023-03-23T15:52:50;12.00;99.90
30648;DHT22;17683;53.360;9.736;2023-03-23T15:55:37;11.90;99.90
30648;DHT22;17683;53.360;9.736;2023-03-23T15:58:12;11.90;99.90
30648;DHT22;17683;53.360;9.736;2023-03-23T16:00:39;12.00;99.90
30648;DHT22;17683;53.360;9.736;2023-03-23T16:03:07;12.00;99.90
30648;DHT22;17683;53.360;9.736;2023-03-23T16:05:35;12.00;99.90
30648;DHT22;17683;53.360;9.736;2023-03-23T16:08:01;12.00;99.90
30648;DHT22;17683;53.360;9.736;2023-03-23T16:10:27;12.00;99.90
30648;DHT22;17683;53.360;9.736;2023-03-23T16:12:53;11.90;99.90
30648;DHT22;17683;53.360;9.736;2023-03-23T16:15:19;12.00;99.90
30648;DHT22;17683;53.360;9.736;2023-03-23T16:17:45;12.00;99.90
30648;DHT22;17683;53.360;9.736;2023-03-23T16:20:20;11.90;99.90
30648;DHT22;17683;53.360;9.736;2023-03-23T16:22:47;11.80;99.90
30648;DHT22;17683;53.360;9.736;2023-03-23T16:25:13;11.90;99.90
30648;DHT22;17683;53.360;9.736;2023-03-23T16:27:40;11.80;99.90
30648;DHT22;17683;53.360;9.736;2023-03-23T16:30:18;11.80;99.90
30648;DHT22;17683;53.360;9.736;2023-03-23T16:32:45;11.80;99.90
30648;DHT22;17683;53.360;9.736;2023-03-23T16:35:12;11.80;99.90
30648;DHT22;17683;53.360;9.736;2023-03-23T16:37:42;11.90;99.90
30648;DHT22;17683;53.360;9.736;2023-03-23T16:40:10;11.90;99.90
30648;DHT22;17683;53.360;9.736;2023-03-23T16:42:36;11.80;99.90
30648;DHT22;17683;53.360;9.736;2023-03-23T16:45:02;11.80;99.90
30648;DHT22;17683;53.360;9.736;2023-03-23T16:47:28;11.80;99.90
30648;DHT22;17683;53.360;9.736;2023-03-23T16:49:54;11.80;99.90
30648;DHT22;17683;53.360;9.736;2023-03-23T16:52:20;11.70;99.90
30648;DHT22;17683;53.360;9.736;2023-03-23T16:54:46;11.60;99.90
30648;DHT22;17683;53.360;9.736;2023-03-23T16:57:11;11.60;99.90
30648;DHT22;17683;53.360;9.736;2023-03-23T16:59:37;11.50;99.90
30648;DHT22;17683;53.360;9.736;2023-03-23T17:02:03;11.50;99.90
30648;DHT22;17683;53.360;9.736;2023-03-23T17:04:30;11.50;99.90
30648;DHT22;17683;53.360;9.736;2023-03-23T17:06:56;11.40;99.90
30648;DHT22;17683;53.360;9.736;2023-03-23T17:09:26;11.40;99.90
30648;DHT22;17683;53.360;9.736;2023-03-23T17:11:52;11.30;99.90
30648;DHT22;17683;53.360;9.736;2023-03-23T17:14:18;11.30;99.90
30648;DHT22;17683;53.360;9.736;2023-03-23T17:16:44;11.30;99.90
30648;DHT22;17683;53.360;9.736;2023-03-23T17:19:09;11.30;99.90
30648;DHT22;17683;53.360;9.736;2023-03-23T17:21:35;11.30;99.90
30648;DHT22;17683;53.360;9.736;2023-03-23T17:24:02;11.30;99.90
30648;DHT22;17683;53.360;9.736;2023-03-23T17:26:28;11.30;99.90
30648;DHT22;17683;53.360;9.736;2023-03-23T17:28:53;11.20;99.90
30648;DHT22;17683;53.360;9.736;2023-03-23T17:31:19;11.10;99.90
30648;DHT22;17683;53.360;9.736;2023-03-23T17:33:45;11.00;99.90
30648;DHT22;17683;53.360;9.736;2023-03-23T17:36:11;10.90;99.90
30648;DHT22;17683;53.360;9.736;2023-03-23T17:38:37;10.90;99.90
30648;DHT22;17683;53.360;9.736;2023-03-23T17:41:03;10.90;99.90